sensor_id;sensor_type;location;lat;lon;timestamp;pressure;altitude;pressure_sealevel;temperature;humidity
21781;BME280;52576;53.614;9.894;2024-01-07T00:01:23;101844.22;;;-1.99;80.43
21781;BME280;52576;53.614;9.894;2024-01-07T00:03:26;101843.34;;;-1.99;80.32
21781;BME280;52576;53.614;9.894;2024-01-07T00:05:31;101856.19;;;-2.01;80.46
21781;BME280;52576;53.614;9.894;2024-01-07T00:07:35;101864.75;;;-2.02;80.37
21781;BME280;52576;53.614;9.894;2024-01-07T00:09:37;101868.16;;;-2.03;80.38
21781;BME280;52576;53.614;9.894;2024-01-07T00:11:40;101869.88;;;-2.05;80.35
21781;BME280;52576;53.614;9.894;2024-01-07T00:13:44;101871.59;;;-2.07;80.42
21781;BME280;52576;53.614;9.894;2024-01-07T00:15:47;101871.59;;;-2.10;80.46
21781;BME280;52576;53.614;9.894;2024-01-07T00:17:50;101871.59;;;-2.13;80.17
21781;BME280;52576;53.614;9.894;2024-01-07T00:19:53;101869.88;;;-2.17;80.26
21781;BME280;52576;53.614;9.894;2024-01-07T00:21:57;101875.84;;;-2.20;80.37
21781;BME280;52576;53.614;9.894;2024-01-07T00:24:00;101873.25;;;-2.24;80.41
21781;BME280;52576;53.614;9.894;2024-01-07T00:26:04;101876.66;;;-2.25;80.23
21781;BME280;52576;53.614;9.894;2024-01-07T00:28:07;101885.22;;;-2.29;80.19
21781;BME280;52576;53.614;9.894;2024-01-07T00:30:11;101868.94;;;-2.33;80.30
21781;BME280;52576;53.614;9.894;2024-01-07T00:32:15;101886.94;;;-2.34;80.42
21781;BME280;52576;53.614;9.894;2024-01-07T00:34:18;101884.34;;;-2.39;80.60
21781;BME280;52576;53.614;9.894;2024-01-07T00:36:21;101883.47;;;-2.43;80.49
21781;BME280;52576;53.614;9.894;2024-01-07T00:38:25;101890.28;;;-2.48;80.62
21781;BME280;52576;53.614;9.894;2024-01-07T00:40:28;101895.41;;;-2.51;80.49
21781;BME280;52576;53.614;9.894;2024-01-07T00:42:31;101896.25;;;-2.53;80.62
21781;BME280;52576;53.614;9.894;2024-01-07T00:44:34;101901.34;;;-2.56;80.64
21781;BME280;52576;53.614;9.894;2024-01-07T00:46:39;101894.50;;;-2.60;80.61
21781;BME280;52576;53.614;9.894;2024-01-07T00:48:43;101894.50;;;-2.63;80.80
21781;BME280;52576;53.614;9.894;2024-01-07T00:50:46;101907.31;;;-2.65;80.75
21781;BME280;52576;53.614;9.894;2024-01-07T00:52:49;101903.00;;;-2.69;80.96
21781;BME280;52576;53.614;9.894;2024-01-07T00:54:54;101897.00;;;-2.72;80.94
21781;BME280;52576;53.614;9.894;2024-01-07T00:56:58;101899.53;;;-2.77;80.97
21781;BME280;52576;53.614;9.894;2024-01-07T00:59:00;101902.94;;;-2.80;81.39
21781;BME280;52576;53.614;9.894;2024-01-07T01:01:03;101907.19;;;-2.83;81.32
21781;BME280;52576;53.614;9.894;2024-01-07T01:03:06;101914.88;;;-2.85;81.44
21781;BME280;52576;53.614;9.894;2024-01-07T01:05:09;101915.75;;;-2.87;81.43
21781;BME280;52576;53.614;9.894;2024-01-07T01:07:13;101919.13;;;-2.91;81.49
21781;BME280;52576;53.614;9.894;2024-01-07T01:09:17;101920.81;;;-2.93;81.77
21781;BME280;52576;53.614;9.894;2024-01-07T01:11:21;101920.81;;;-2.96;81.82
21781;BME280;52576;53.614;9.894;2024-01-07T01:13:24;101933.63;;;-2.98;81.88
21781;BME280;52576;53.614;9.894;2024-01-07T01:15:27;101925.06;;;-2.98;82.06
21781;BME280;52576;53.614;9.894;2024-01-07T01:17:30;101922.50;;;-2.98;81.99
21781;BME280;52576;53.614;9.894;2024-01-07T01:19:34;101929.34;;;-2.97;82.22
21781;BME280;52576;53.614;9.894;2024-01-07T01:21:37;101932.78;;;-2.97;82.21
21781;BME280;52576;53.614;9.894;2024-01-07T01:23:40;101941.31;;;-2.96;82.19
21781;BME280;52576;53.614;9.894;2024-01-07T01:25:43;101943.00;;;-2.98;82.28
21781;BME280;52576;53.614;9.894;2024-01-07T01:27:47;101937.88;;;-2.98;82.35
21781;BME280;52576;53.614;9.894;2024-01-07T01:29:51;101939.56;;;-3.00;82.25
21781;BME280;52576;53.614;9.894;2024-01-07T01:31:54;101950.69;;;-3.01;82.29
21781;BME280;52576;53.614;9.894;2024-01-07T01:33:57;101954.09;;;-3.01;82.53
21781;BME280;52576;53.614;9.894;2024-01-07T01:36:04;101954.97;;;-3.00;82.64
21781;BME280;52576;53.614;9.894;2024-01-07T01:38:07;101951.53;;;-3.01;82.64
21781;BME280;52576;53.614;9.894;2024-01-07T01:40:11;101954.97;;;-3.00;82.54
21781;BME280;52576;53.614;9.894;2024-01-07T01:42:15;101960.97;;;-3.00;82.52
21781;BME280;52576;53.614;9.894;2024-01-07T01:44:19;101960.09;;;-3.00;82.65
21781;BME280;52576;53.614;9.894;2024-01-07T01:46:21;101960.09;;;-3.00;82.70
21781;BME280;52576;53.614;9.894;2024-01-07T01:48:26;101960.09;;;-3.00;82.68
21781;BME280;52576;53.614;9.894;2024-01-07T01:50:28;101968.66;;;-2.98;82.70
21781;BME280;52576;53.614;9.894;2024-01-07T01:52:31;101971.25;;;-2.97;82.76
21781;BME280;52576;53.614;9.894;2024-01-07T01:54:36;101977.25;;;-2.93;82.77
21781;BME280;52576;53.614;9.894;2024-01-07T01:56:39;101970.44;;;-2.91;82.82
21781;BME280;52576;53.614;9.894;2024-01-07T01:58:43;101973.00;;;-2.90;82.92
21781;BME280;52576;53.614;9.894;2024-01-07T02:00:48;101970.47;;;-2.88;82.93
21781;BME280;52576;53.614;9.894;2024-01-07T02:02:52;101984.16;;;-2.86;83.13
21781;BME280;52576;53.614;9.894;2024-01-07T02:04:56;101980.72;;;-2.85;83.13
21781;BME280;52576;53.614;9.894;2024-01-07T02:07:00;101986.72;;;-2.83;83.10
21781;BME280;52576;53.614;9.894;2024-01-07T02:09:03;101991.88;;;-2.80;83.22
21781;BME280;52576;53.614;9.894;2024-01-07T02:11:16;101989.34;;;-2.77;83.05
21781;BME280;52576;53.614;9.894;2024-01-07T02:13:19;101990.25;;;-2.72;83.14
21781;BME280;52576;53.614;9.894;2024-01-07T02:15:22;101994.56;;;-2.68;83.09
21781;BME280;52576;53.614;9.894;2024-01-07T02:17:26;101991.16;;;-2.64;83.02
21781;BME280;52576;53.614;9.894;2024-01-07T02:19:29;101999.72;;;-2.59;83.13
21781;BME280;52576;53.614;9.894;2024-01-07T02:21:33;102001.47;;;-2.55;83.17
21781;BME280;52576;53.614;9.894;2024-01-07T02:23:35;102003.22;;;-2.51;83.10
21781;BME280;52576;53.614;9.894;2024-01-07T02:25:40;101998.09;;;-2.48;83.09
21781;BME280;52576;53.614;9.894;2024-01-07T02:27:42;101998.13;;;-2.45;82.98
21781;BME280;52576;53.614;9.894;2024-01-07T02:29:45;102000.72;;;-2.40;82.81
21781;BME280;52576;53.614;9.894;2024-01-07T02:31:48;102006.75;;;-2.36;82.72
21781;BME280;52576;53.614;9.894;2024-01-07T02:33:51;102007.63;;;-2.34;82.60
21781;BME280;52576;53.614;9.894;2024-01-07T02:35:55;102012.72;;;-2.31;82.75
21781;BME280;52576;53.614;9.894;2024-01-07T02:37:58;102009.34;;;-2.27;82.72
21781;BME280;52576;53.614;9.894;2024-01-07T02:40:00;102002.50;;;-2.24;82.66
21781;BME280;52576;53.614;9.894;2024-01-07T02:42:06;102011.94;;;-2.21;82.62
21781;BME280;52576;53.614;9.894;2024-01-07T02:44:09;102017.09;;;-2.18;82.72
21781;BME280;52576;53.614;9.894;2024-01-07T02:46:14;102016.25;;;-2.17;82.58
21781;BME280;52576;53.614;9.894;2024-01-07T02:48:17;102015.41;;;-2.16;82.51
21781;BME280;52576;53.614;9.894;2024-01-07T02:50:20;102013.72;;;-2.14;82.52
21781;BME280;52576;53.614;9.894;2024-01-07T02:52:23;102017.16;;;-2.12;82.53
21781;BME280;52576;53.614;9.894;2024-01-07T02:54:26;102024.03;;;-2.08;82.42
21781;BME280;52576;53.614;9.894;2024-01-07T02:56:30;102021.44;;;-2.07;82.44
21781;BME280;52576;53.614;9.894;2024-01-07T02:58:33;102030.88;;;-2.04;82.23
21781;BME280;52576;53.614;9.894;2024-01-07T03:00:36;102030.00;;;-2.03;82.17
21781;BME280;52576;53.614;9.894;2024-01-07T03:02:39;102029.16;;;-2.00;82.20
21781;BME280;52576;53.614;9.894;2024-01-07T03:04:43;102030.91;;;-1.98;82.05
21781;BME280;52576;53.614;9.894;2024-01-07T03:06:46;102022.34;;;-1.97;82.11
21781;BME280;52576;53.614;9.894;2024-01-07T03:08:49;102025.78;;;-1.95;81.93
21781;BME280;52576;53.614;9.894;2024-01-07T03:10:52;102030.94;;;-1.92;81.83
21781;BME280;52576;53.614;9.894;2024-01-07T03:12:55;102030.94;;;-1.89;81.90
21781;BME280;52576;53.614;9.894;2024-01-07T03:14:59;102022.41;;;-1.88;81.69
21781;BME280;52576;53.614;9.894;2024-01-07T03:17:03;102034.41;;;-1.85;81.73
21781;BME280;52576;53.614;9.894;2024-01-07T03:19:05;102042.13;;;-1.84;81.57
21781;BME280;52576;53.614;9.894;2024-01-07T03:21:16;102043.84;;;-1.83;81.56
21781;BME280;52576;53.614;9.894;2024-01-07T03:23:18;102040.38;;;-1.82;81.51
21781;BME280;52576;53.614;9.894;2024-01-07T03:25:21;102038.69;;;-1.80;81.21
21781;BME280;52576;53.614;9.894;2024-01-07T03:27:24;102049.81;;;-1.78;81.29
21781;BME280;52576;53.614;9.894;2024-01-07T03:29:27;102044.72;;;-1.75;81.03
21781;BME280;52576;53.614;9.894;2024-01-07T03:31:31;102047.28;;;-1.73;81.09
21781;BME280;52576;53.614;9.894;2024-01-07T03:33:34;102051.59;;;-1.71;80.98
21781;BME280;52576;53.614;9.894;2024-01-07T03:35:37;102043.03;;;-1.69;80.98
21781;BME280;52576;53.614;9.894;2024-01-07T03:37:40;102049.88;;;-1.68;80.96
21781;BME280;52576;53.614;9.894;2024-01-07T03:39:44;102051.59;;;-1.67;80.84
21781;BME280;52576;53.614;9.894;2024-01-07T03:41:47;102052.47;;;-1.65;80.69
21781;BME280;52576;53.614;9.894;2024-01-07T03:43:50;102051.63;;;-1.64;80.62
21781;BME280;52576;53.614;9.894;2024-01-07T03:45:54;102055.06;;;-1.62;80.60
21781;BME280;52576;53.614;9.894;2024-01-07T03:47:58;102049.06;;;-1.63;80.46
21781;BME280;52576;53.614;9.894;2024-01-07T03:50:02;102063.63;;;-1.60;80.61
21781;BME280;52576;53.614;9.894;2024-01-07T03:52:06;102067.06;;;-1.58;80.60
21781;BME280;52576;53.614;9.894;2024-01-07T03:54:09;102063.66;;;-1.57;80.43
21781;BME280;52576;53.614;9.894;2024-01-07T03:56:12;102074.75;;;-1.55;80.43
21781;BME280;52576;53.614;9.894;2024-01-07T03:58:15;102070.50;;;-1.53;80.17
21781;BME280;52576;53.614;9.894;2024-01-07T04:00:19;102072.22;;;-1.51;80.24
21781;BME280;52576;53.614;9.894;2024-01-07T04:02:21;102069.66;;;-1.49;80.21
21781;BME280;52576;53.614;9.894;2024-01-07T04:04:25;102077.38;;;-1.49;80.25
21781;BME280;52576;53.614;9.894;2024-01-07T04:06:28;102064.50;;;-1.48;80.32
21781;BME280;52576;53.614;9.894;2024-01-07T04:08:32;102073.94;;;-1.47;80.43
21781;BME280;52576;53.614;9.894;2024-01-07T04:10:36;102076.53;;;-1.47;80.25
21781;BME280;52576;53.614;9.894;2024-01-07T04:12:39;102084.25;;;-1.45;80.16
21781;BME280;52576;53.614;9.894;2024-01-07T04:14:43;102081.69;;;-1.44;80.17
21781;BME280;52576;53.614;9.894;2024-01-07T04:16:47;102089.41;;;-1.42;80.34
21781;BME280;52576;53.614;9.894;2024-01-07T04:18:50;102091.13;;;-1.40;80.28
21781;BME280;52576;53.614;9.894;2024-01-07T04:20:56;102094.56;;;-1.39;79.97
21781;BME280;52576;53.614;9.894;2024-01-07T04:22:59;102100.56;;;-1.37;79.77
21781;BME280;52576;53.614;9.894;2024-01-07T04:25:03;102102.28;;;-1.34;79.79
21781;BME280;52576;53.614;9.894;2024-01-07T04:27:09;102098.00;;;-1.34;79.83
21781;BME280;52576;53.614;9.894;2024-01-07T04:29:13;102098.00;;;-1.34;79.71
21781;BME280;52576;53.614;9.894;2024-01-07T04:31:16;102104.88;;;-1.33;79.87
21781;BME280;52576;53.614;9.894;2024-01-07T04:33:20;102109.16;;;-1.33;79.75
21781;BME280;52576;53.614;9.894;2024-01-07T04:35:23;102106.59;;;-1.33;79.94
21781;BME280;52576;53.614;9.894;2024-01-07T04:37:27;102103.16;;;-1.34;79.89
21781;BME280;52576;53.614;9.894;2024-01-07T04:39:31;102106.56;;;-1.35;79.63
21781;BME280;52576;53.614;9.894;2024-01-07T04:41:35;102109.16;;;-1.33;79.61
21781;BME280;52576;53.614;9.894;2024-01-07T04:43:40;102107.44;;;-1.34;79.64
21781;BME280;52576;53.614;9.894;2024-01-07T04:45:45;102106.56;;;-1.35;79.88
21781;BME280;52576;53.614;9.894;2024-01-07T04:47:49;102110.00;;;-1.33;79.71
21781;BME280;52576;53.614;9.894;2024-01-07T04:49:51;102115.16;;;-1.33;79.79
21781;BME280;52576;53.614;9.894;2024-01-07T04:52:01;102116.03;;;-1.32;79.88
21781;BME280;52576;53.614;9.894;2024-01-07T04:54:07;102117.75;;;-1.31;80.04
21781;BME280;52576;53.614;9.894;2024-01-07T04:56:13;102115.16;;;-1.30;79.57
21781;BME280;52576;53.614;9.894;2024-01-07T04:58:16;102116.88;;;-1.29;79.67
21781;BME280;52576;53.614;9.894;2024-01-07T05:00:23;102124.59;;;-1.27;79.68
21781;BME280;52576;53.614;9.894;2024-01-07T05:02:35;102119.44;;;-1.26;79.37
21781;BME280;52576;53.614;9.894;2024-01-07T05:04:39;102128.88;;;-1.25;79.34
21781;BME280;52576;53.614;9.894;2024-01-07T05:06:44;102120.31;;;-1.24;79.45
21781;BME280;52576;53.614;9.894;2024-01-07T05:08:52;102131.47;;;-1.23;79.50
21781;BME280;52576;53.614;9.894;2024-01-07T05:10:59;102134.91;;;-1.23;79.35
21781;BME280;52576;53.614;9.894;2024-01-07T05:13:03;102140.91;;;-1.21;79.21
21781;BME280;52576;53.614;9.894;2024-01-07T05:15:08;102134.91;;;-1.20;79.36
21781;BME280;52576;53.614;9.894;2024-01-07T05:17:16;102137.47;;;-1.20;79.17
21781;BME280;52576;53.614;9.894;2024-01-07T05:19:19;102144.34;;;-1.19;79.37
21781;BME280;52576;53.614;9.894;2024-01-07T05:21:22;102146.94;;;-1.17;79.27
21781;BME280;52576;53.614;9.894;2024-01-07T05:23:28;102154.66;;;-1.16;78.94
21781;BME280;52576;53.614;9.894;2024-01-07T05:25:31;102161.50;;;-1.15;78.48
21781;BME280;52576;53.614;9.894;2024-01-07T05:27:35;102158.09;;;-1.14;78.34
21781;BME280;52576;53.614;9.894;2024-01-07T05:29:37;102166.69;;;-1.12;78.29
21781;BME280;52576;53.614;9.894;2024-01-07T05:31:40;102166.69;;;-1.12;78.27
21781;BME280;52576;53.614;9.894;2024-01-07T05:33:44;102173.53;;;-1.11;78.44
21781;BME280;52576;53.614;9.894;2024-01-07T05:35:46;102175.25;;;-1.10;78.78
21781;BME280;52576;53.614;9.894;2024-01-07T05:37:49;102171.84;;;-1.09;78.83
21781;BME280;52576;53.614;9.894;2024-01-07T05:39:52;102177.84;;;-1.07;79.02
21781;BME280;52576;53.614;9.894;2024-01-07T05:41:56;102174.41;;;-1.07;79.01
21781;BME280;52576;53.614;9.894;2024-01-07T05:44:01;102177.00;;;-1.06;79.02
21781;BME280;52576;53.614;9.894;2024-01-07T05:46:04;102171.84;;;-1.06;79.48
21781;BME280;52576;53.614;9.894;2024-01-07T05:48:07;102183.88;;;-1.05;79.27
21781;BME280;52576;53.614;9.894;2024-01-07T05:50:10;102189.88;;;-1.04;79.31
21781;BME280;52576;53.614;9.894;2024-01-07T05:52:16;102183.88;;;-1.05;79.42
21781;BME280;52576;53.614;9.894;2024-01-07T05:54:19;102185.56;;;-1.04;79.32
21781;BME280;52576;53.614;9.894;2024-01-07T05:56:24;102192.41;;;-1.03;79.67
21781;BME280;52576;53.614;9.894;2024-01-07T05:58:27;102192.41;;;-1.03;79.29
21781;BME280;52576;53.614;9.894;2024-01-07T06:00:32;102192.41;;;-1.03;79.41
21781;BME280;52576;53.614;9.894;2024-01-07T06:02:35;102199.28;;;-1.02;79.30
21781;BME280;52576;53.614;9.894;2024-01-07T06:04:38;102193.28;;;-1.02;79.39
21781;BME280;52576;53.614;9.894;2024-01-07T06:06:40;102204.44;;;-1.02;79.57
21781;BME280;52576;53.614;9.894;2024-01-07T06:08:44;102200.13;;;-1.03;79.82
21781;BME280;52576;53.614;9.894;2024-01-07T06:10:48;102197.56;;;-1.03;79.71
21781;BME280;52576;53.614;9.894;2024-01-07T06:12:50;102206.13;;;-1.04;79.37
21781;BME280;52576;53.614;9.894;2024-01-07T06:14:54;102203.59;;;-1.05;79.45
21781;BME280;52576;53.614;9.894;2024-01-07T06:16:57;102204.44;;;-1.05;79.50
21781;BME280;52576;53.614;9.894;2024-01-07T06:19:00;102213.03;;;-1.06;79.58
21781;BME280;52576;53.614;9.894;2024-01-07T06:21:04;102216.44;;;-1.07;79.75
21781;BME280;52576;53.614;9.894;2024-01-07T06:23:08;102224.16;;;-1.07;79.87
21781;BME280;52576;53.614;9.894;2024-01-07T06:25:11;102225.88;;;-1.07;79.88
21781;BME280;52576;53.614;9.894;2024-01-07T06:27:18;102220.72;;;-1.07;80.14
21781;BME280;52576;53.614;9.894;2024-01-07T06:29:21;102226.75;;;-1.07;80.35
21781;BME280;52576;53.614;9.894;2024-01-07T06:31:25;102221.59;;;-1.07;80.35
21781;BME280;52576;53.614;9.894;2024-01-07T06:33:32;102223.31;;;-1.07;80.43
21781;BME280;52576;53.614;9.894;2024-01-07T06:35:39;102230.16;;;-1.08;80.30
21781;BME280;52576;53.614;9.894;2024-01-07T06:37:41;102222.44;;;-1.09;80.39
21781;BME280;52576;53.614;9.894;2024-01-07T06:39:44;102230.16;;;-1.11;80.39
21781;BME280;52576;53.614;9.894;2024-01-07T06:41:47;102230.16;;;-1.11;80.50
21781;BME280;52576;53.614;9.894;2024-01-07T06:43:50;102232.72;;;-1.12;80.69
21781;BME280;52576;53.614;9.894;2024-01-07T06:45:56;102243.84;;;-1.15;80.85
21781;BME280;52576;53.614;9.894;2024-01-07T06:47:59;102242.97;;;-1.15;80.97
21781;BME280;52576;53.614;9.894;2024-01-07T06:50:04;102240.41;;;-1.17;80.95
21781;BME280;52576;53.614;9.894;2024-01-07T06:52:08;102250.69;;;-1.17;81.22
21781;BME280;52576;53.614;9.894;2024-01-07T06:54:11;102246.41;;;-1.18;81.34
21781;BME280;52576;53.614;9.894;2024-01-07T06:56:16;102252.41;;;-1.17;81.66
21781;BME280;52576;53.614;9.894;2024-01-07T06:58:19;102255.84;;;-1.17;81.76
21781;BME280;52576;53.614;9.894;2024-01-07T07:00:22;102257.56;;;-1.16;81.87
21781;BME280;52576;53.614;9.894;2024-01-07T07:02:25;102256.72;;;-1.15;82.23
21781;BME280;52576;53.614;9.894;2024-01-07T07:04:28;102263.56;;;-1.15;82.37
21781;BME280;52576;53.614;9.894;2024-01-07T07:06:33;102256.72;;;-1.15;82.68
21781;BME280;52576;53.614;9.894;2024-01-07T07:08:37;102264.44;;;-1.15;82.90
21781;BME280;52576;53.614;9.894;2024-01-07T07:10:42;102274.72;;;-1.15;82.80
21781;BME280;52576;53.614;9.894;2024-01-07T07:12:45;102281.56;;;-1.17;83.08
21781;BME280;52576;53.614;9.894;2024-01-07T07:14:48;102285.00;;;-1.18;83.29
21781;BME280;52576;53.614;9.894;2024-01-07T07:16:53;102285.84;;;-1.17;83.47
21781;BME280;52576;53.614;9.894;2024-01-07T07:18:56;102283.25;;;-1.19;83.64
21781;BME280;52576;53.614;9.894;2024-01-07T07:20:58;102288.41;;;-1.19;84.09
21781;BME280;52576;53.614;9.894;2024-01-07T07:23:03;102296.13;;;-1.19;84.24
21781;BME280;52576;53.614;9.894;2024-01-07T07:25:06;102303.84;;;-1.19;84.34
21781;BME280;52576;53.614;9.894;2024-01-07T07:27:10;102309.00;;;-1.19;84.45
21781;BME280;52576;53.614;9.894;2024-01-07T07:29:16;102307.28;;;-1.20;84.56
21781;BME280;52576;53.614;9.894;2024-01-07T07:31:20;102310.69;;;-1.21;84.75
21781;BME280;52576;53.614;9.894;2024-01-07T07:33:23;102307.25;;;-1.23;84.84
21781;BME280;52576;53.614;9.894;2024-01-07T07:35:27;102315.81;;;-1.24;84.93
21781;BME280;52576;53.614;9.894;2024-01-07T07:37:30;102314.09;;;-1.25;85.11
21781;BME280;52576;53.614;9.894;2024-01-07T07:39:34;102323.50;;;-1.27;85.06
21781;BME280;52576;53.614;9.894;2024-01-07T07:41:38;102328.66;;;-1.27;85.24
21781;BME280;52576;53.614;9.894;2024-01-07T07:43:42;102335.50;;;-1.30;85.23
21781;BME280;52576;53.614;9.894;2024-01-07T07:45:45;102333.78;;;-1.33;85.20
21781;BME280;52576;53.614;9.894;2024-01-07T07:47:49;102336.31;;;-1.36;85.35
21781;BME280;52576;53.614;9.894;2024-01-07T07:49:52;102341.44;;;-1.39;85.46
21781;BME280;52576;53.614;9.894;2024-01-07T07:51:55;102337.97;;;-1.44;85.39
21781;BME280;52576;53.614;9.894;2024-01-07T07:53:58;102339.66;;;-1.46;85.42
21781;BME280;52576;53.614;9.894;2024-01-07T07:56:03;102345.63;;;-1.50;85.59
21781;BME280;52576;53.614;9.894;2024-01-07T07:58:06;102345.59;;;-1.55;85.45
21781;BME280;52576;53.614;9.894;2024-01-07T08:00:10;102354.16;;;-1.59;85.51
21781;BME280;52576;53.614;9.894;2024-01-07T08:02:14;102354.97;;;-1.61;85.50
21781;BME280;52576;53.614;9.894;2024-01-07T08:04:18;102360.09;;;-1.64;85.53
21781;BME280;52576;53.614;9.894;2024-01-07T08:06:21;102366.94;;;-1.66;85.25
21781;BME280;52576;53.614;9.894;2024-01-07T08:08:24;102370.31;;;-1.71;85.36
21781;BME280;52576;53.614;9.894;2024-01-07T08:10:27;102372.84;;;-1.74;85.42
21781;BME280;52576;53.614;9.894;2024-01-07T08:12:35;102366.81;;;-1.77;85.58
21781;BME280;52576;53.614;9.894;2024-01-07T08:14:38;102372.81;;;-1.78;85.63
21781;BME280;52576;53.614;9.894;2024-01-07T08:16:42;102373.66;;;-1.78;85.68
21781;BME280;52576;53.614;9.894;2024-01-07T08:18:46;102372.81;;;-1.78;85.75
21781;BME280;52576;53.614;9.894;2024-01-07T08:20:49;102379.66;;;-1.77;85.66
21781;BME280;52576;53.614;9.894;2024-01-07T08:22:51;102377.13;;;-1.76;85.61
21781;BME280;52576;53.614;9.894;2024-01-07T08:24:55;102376.25;;;-1.76;85.72
21781;BME280;52576;53.614;9.894;2024-01-07T08:26:58;102373.69;;;-1.75;85.76
21781;BME280;52576;53.614;9.894;2024-01-07T08:29:02;102383.97;;;-1.75;85.66
21781;BME280;52576;53.614;9.894;2024-01-07T08:31:05;102385.72;;;-1.74;85.48
21781;BME280;52576;53.614;9.894;2024-01-07T08:33:09;102385.75;;;-1.71;85.53
21781;BME280;52576;53.614;9.894;2024-01-07T08:35:12;102390.88;;;-1.71;85.43
21781;BME280;52576;53.614;9.894;2024-01-07T08:37:18;102390.91;;;-1.67;85.49
21781;BME280;52576;53.614;9.894;2024-01-07T08:39:20;102396.94;;;-1.64;85.41
21781;BME280;52576;53.614;9.894;2024-01-07T08:41:23;102399.53;;;-1.62;85.30
21781;BME280;52576;53.614;9.894;2024-01-07T08:43:27;102403.84;;;-1.61;85.07
21781;BME280;52576;53.614;9.894;2024-01-07T08:45:31;102402.97;;;-1.63;84.94
21781;BME280;52576;53.614;9.894;2024-01-07T08:47:35;102406.38;;;-1.64;84.88
21781;BME280;52576;53.614;9.894;2024-01-07T08:49:44;102402.91;;;-1.66;84.68
21781;BME280;52576;53.614;9.894;2024-01-07T08:51:47;102405.44;;;-1.71;84.44
21781;BME280;52576;53.614;9.894;2024-01-07T08:53:51;102418.25;;;-1.76;84.38
21781;BME280;52576;53.614;9.894;2024-01-07T08:55:54;102422.47;;;-1.81;84.41
21781;BME280;52576;53.614;9.894;2024-01-07T08:57:57;102423.31;;;-1.85;84.05
21781;BME280;52576;53.614;9.894;2024-01-07T09:00:02;102424.97;;;-1.90;84.08
21781;BME280;52576;53.614;9.894;2024-01-07T09:02:07;102428.34;;;-1.94;84.20
21781;BME280;52576;53.614;9.894;2024-01-07T09:04:11;102428.31;;;-1.97;84.08
21781;BME280;52576;53.614;9.894;2024-01-07T09:06:14;102436.84;;;-1.99;84.16
21781;BME280;52576;53.614;9.894;2024-01-07T09:08:18;102433.41;;;-2.00;84.09
21781;BME280;52576;53.614;9.894;2024-01-07T09:10:22;102435.09;;;-2.02;84.07
21781;BME280;52576;53.614;9.894;2024-01-07T09:12:27;102436.78;;;-2.04;83.98
21781;BME280;52576;53.614;9.894;2024-01-07T09:14:31;102435.88;;;-2.08;83.79
21781;BME280;52576;53.614;9.894;2024-01-07T09:16:35;102433.28;;;-2.12;83.94
21781;BME280;52576;53.614;9.894;2024-01-07T09:18:41;102436.66;;;-2.16;83.77
21781;BME280;52576;53.614;9.894;2024-01-07T09:20:48;102439.16;;;-2.21;83.71
21781;BME280;52576;53.614;9.894;2024-01-07T09:22:55;102443.38;;;-2.24;83.63
21781;BME280;52576;53.614;9.894;2024-01-07T09:24:59;102445.06;;;-2.26;83.67
21781;BME280;52576;53.614;9.894;2024-01-07T09:27:04;102450.22;;;-2.26;83.77
21781;BME280;52576;53.614;9.894;2024-01-07T09:29:08;102451.94;;;-2.25;83.71
21781;BME280;52576;53.614;9.894;2024-01-07T09:31:12;102452.81;;;-2.23;83.81
21781;BME280;52576;53.614;9.894;2024-01-07T09:33:15;102463.19;;;-2.17;83.80
21781;BME280;52576;53.614;9.894;2024-01-07T09:35:20;102459.84;;;-2.10;83.60
21781;BME280;52576;53.614;9.894;2024-01-07T09:37:23;102462.50;;;-2.01;83.59
21781;BME280;52576;53.614;9.894;2024-01-07T09:39:27;102461.81;;;-1.89;83.53
21781;BME280;52576;53.614;9.894;2024-01-07T09:41:30;102464.50;;;-1.76;83.33
21781;BME280;52576;53.614;9.894;2024-01-07T09:43:33;102464.63;;;-1.66;82.81
21781;BME280;52576;53.614;9.894;2024-01-07T09:45:38;102463.84;;;-1.59;82.54
21781;BME280;52576;53.614;9.894;2024-01-07T09:47:44;102460.44;;;-1.55;82.25
21781;BME280;52576;53.614;9.894;2024-01-07T09:49:48;102454.44;;;-1.54;82.19
21781;BME280;52576;53.614;9.894;2024-01-07T09:51:54;102461.31;;;-1.53;81.79
21781;BME280;52576;53.614;9.894;2024-01-07T09:54:03;102462.16;;;-1.54;81.42
21781;BME280;52576;53.614;9.894;2024-01-07T09:56:11;102464.72;;;-1.54;81.23
21781;BME280;52576;53.614;9.894;2024-01-07T09:58:16;102468.19;;;-1.52;81.24
21781;BME280;52576;53.614;9.894;2024-01-07T10:00:20;102459.63;;;-1.51;80.76
21781;BME280;52576;53.614;9.894;2024-01-07T10:02:23;102471.63;;;-1.50;80.69
21781;BME280;52576;53.614;9.894;2024-01-07T10:04:26;102464.78;;;-1.48;80.46
21781;BME280;52576;53.614;9.894;2024-01-07T10:06:31;102456.22;;;-1.47;80.47
21781;BME280;52576;53.614;9.894;2024-01-07T10:08:35;102456.22;;;-1.47;80.07
21781;BME280;52576;53.614;9.894;2024-01-07T10:10:39;102456.22;;;-1.47;79.96
21781;BME280;52576;53.614;9.894;2024-01-07T10:12:44;102461.41;;;-1.44;79.84
21781;BME280;52576;53.614;9.894;2024-01-07T10:14:47;102459.72;;;-1.42;79.51
21781;BME280;52576;53.614;9.894;2024-01-07T10:16:50;102459.75;;;-1.39;79.33
21781;BME280;52576;53.614;9.894;2024-01-07T10:18:53;102453.75;;;-1.38;79.37
21781;BME280;52576;53.614;9.894;2024-01-07T10:21:01;102449.50;;;-1.36;79.06
21781;BME280;52576;53.614;9.894;2024-01-07T10:23:05;102467.53;;;-1.33;78.89
21781;BME280;52576;53.614;9.894;2024-01-07T10:25:11;102463.25;;;-1.31;78.84
21781;BME280;52576;53.614;9.894;2024-01-07T10:27:14;102465.00;;;-1.27;78.80
21781;BME280;52576;53.614;9.894;2024-01-07T10:29:17;102470.16;;;-1.24;78.66
21781;BME280;52576;53.614;9.894;2024-01-07T10:31:22;102473.63;;;-1.22;78.26
21781;BME280;52576;53.614;9.894;2024-01-07T10:33:30;102473.63;;;-1.22;78.07
21781;BME280;52576;53.614;9.894;2024-01-07T10:35:35;102474.47;;;-1.21;78.19
21781;BME280;52576;53.614;9.894;2024-01-07T10:37:38;102477.09;;;-1.18;78.06
21781;BME280;52576;53.614;9.894;2024-01-07T10:39:42;102479.66;;;-1.17;77.82
21781;BME280;52576;53.614;9.894;2024-01-07T10:41:47;102478.00;;;-1.13;77.71
21781;BME280;52576;53.614;9.894;2024-01-07T10:43:50;102484.00;;;-1.13;77.56
21781;BME280;52576;53.614;9.894;2024-01-07T10:45:55;102475.41;;;-1.15;77.48
21781;BME280;52576;53.614;9.894;2024-01-07T10:47:59;102479.63;;;-1.20;77.32